Portada
METAR-TAF:

METAR-TAF

Aeroports :

Batam, Indonèsia

latitud: 01-07-15N, longitud: 104-07-07E, altitud: 38 m

Observació

L'informe es va fer fa 37 minuts, a les 07:30 UTC
Vent 2 kt del Sud
Temperatura 27°C
Humitat 100%
Pressió 1009 hPa
Visibilitat 10 km o més
Escasses núvols a una alçada de 1400 ft

METAR: WIDD 280730Z 19002KT 9999 FEW014 27/27 Q1009 NOSIG

Hora: 15:07 (08:07 UTC)

Pronòstic

L'informe es va fer fa 3 hores i 7 minuts, a les 05:00 UTC
Pronòstic vàlid del 28 a les 06 UTC al 29 a les 06 UTC
Vent 7 kt del Sud
Visibilitat 10 km o més
Núvols disperses a una alçada de 1400 ft
Probabilitat 30% :
Temporalment
l' 28 a les 07 UTC al 28 a les 09 UTC
Escasses núvols a una alçada de 1300 ft, Cumulonimbus.
tempesta, pluja

TAF: WIDD 280500Z 2806/2906 17007KT 9999 SCT014 PROB30 TEMPO 2807/2809 -TSRA FEW013CB

Observacions i pronòstics meteorològics de més de 4000 aeroports (METAR i TAF).

Les estacions disponibles són els punts grocs i vermells al mapa.

Posi el ratolí al punt desitjat per veure el nom de l'estació.

Feu clic per veure les observacions i els pronòstics meteorològics.

Per canviar el mapa: feu clic els botons verds amb una creu de color negre per apropar; al botó verd amb un guió per allunyar la imatge; o en les fletxes verdes per a mapes adjacents.


METAR-TAF: